N324BA KVNY-KSJC
Flight info
| Callsign | N324BA |
|---|---|
| Flight time | 0h 45m |
| Altitude | 40000 |
| Route | HAYEZ9 COREZ MAKRS TROXX SILCN6 |
| Aircraft | C750/M-SBDE3FGHRWXY/S |
Departure
| Time | 2026-05-09 16:45 |
|---|---|
| Airport | Van Nuys Airport (KVNY) |
Arrival
| Time | 2026-05-09 17:30 |
|---|---|
| Airport | Norman Y. Mineta San Jose International Airport (KSJC) |
| Time | Latitude | Longitude | Altitude | Speed | Heading |
|---|---|---|---|---|---|
| 2026-05-09 16:21 | 34.20588 | -118.48724 | 774 ft | 0 kts | 358° |
| 2026-05-09 16:37 | 34.20591 | -118.48728 | 774 ft | 1 kts | 324° |
| 2026-05-09 16:37 | 34.20592 | -118.48735 | 774 ft | 1 kts | 278° |
| 2026-05-09 16:37 | 34.20588 | -118.48744 | 774 ft | 0 kts | 242° |
| 2026-05-09 16:38 | 34.20583 | -118.48755 | 774 ft | 3 kts | 239° |
| 2026-05-09 16:38 | 34.20575 | -118.48772 | 774 ft | 2 kts | 240° |
| 2026-05-09 16:39 | 34.20567 | -118.48792 | 774 ft | 3 kts | 252° |
| 2026-05-09 16:39 | 34.20564 | -118.48813 | 775 ft | 2 kts | 262° |
| 2026-05-09 16:39 | 34.20562 | -118.48824 | 775 ft | 1 kts | 255° |
| 2026-05-09 16:39 | 34.20552 | -118.48837 | 774 ft | 5 kts | 212° |
| 2026-05-09 16:40 | 34.20502 | -118.48844 | 772 ft | 9 kts | 184° |
| 2026-05-09 16:40 | 34.20433 | -118.48849 | 770 ft | 11 kts | 183° |
| 2026-05-09 16:42 | 34.19754 | -118.48841 | 750 ft | 15 kts | 174° |
| 2026-05-09 16:42 | 34.19722 | -118.48841 | 752 ft | 0 kts | 215° |
| 2026-05-09 16:43 | 34.19711 | -118.48856 | 751 ft | 5 kts | 246° |
| 2026-05-09 16:44 | 34.19706 | -118.48917 | 751 ft | 7 kts | 285° |
| 2026-05-09 16:44 | 34.19721 | -118.48923 | 751 ft | 0 kts | 359° |
| 2026-05-09 16:44 | 34.19906 | -118.48938 | 754 ft | 77 kts | 355° |
| 2026-05-09 16:44 | 34.20769 | -118.49012 | 805 ft | 154 kts | 356° |
| 2026-05-09 16:45 | 34.21851 | -118.49117 | 1418 ft | 155 kts | 355° |
| 2026-05-09 16:45 | 34.23015 | -118.49266 | 1803 ft | 187 kts | 353° |
| 2026-05-09 16:45 | 34.24348 | -118.49476 | 2535 ft | 192 kts | 352° |
| 2026-05-09 16:45 | 34.25657 | -118.49714 | 3584 ft | 193 kts | 351° |
| 2026-05-09 16:46 | 34.27073 | -118.49992 | 4147 ft | 222 kts | 348° |
| 2026-05-09 16:46 | 34.28661 | -118.50431 | 4740 ft | 246 kts | 347° |
| 2026-05-09 16:46 | 34.30395 | -118.50877 | 5307 ft | 265 kts | 347° |
| 2026-05-09 16:46 | 34.32245 | -118.51308 | 6136 ft | 271 kts | 349° |
| 2026-05-09 16:47 | 34.34064 | -118.51685 | 7358 ft | 260 kts | 349° |
| 2026-05-09 16:47 | 34.35837 | -118.52030 | 8311 ft | 268 kts | 350° |
| 2026-05-09 16:47 | 34.37700 | -118.52642 | 8852 ft | 290 kts | 336° |
| 2026-05-09 16:47 | 34.39343 | -118.54169 | 9644 ft | 296 kts | 309° |
| 2026-05-09 16:48 | 34.40162 | -118.56352 | 10721 ft | 289 kts | 284° |
| 2026-05-09 16:48 | 34.40514 | -118.58805 | 11244 ft | 306 kts | 278° |
| 2026-05-09 16:48 | 34.40838 | -118.61439 | 11585 ft | 327 kts | 279° |
| 2026-05-09 16:48 | 34.41404 | -118.64221 | 11670 ft | 355 kts | 288° |
| 2026-05-09 16:49 | 34.42492 | -118.66981 | 12070 ft | 366 kts | 304° |
| 2026-05-09 16:49 | 34.44310 | -118.69070 | 13123 ft | 360 kts | 324° |
| 2026-05-09 16:49 | 34.46517 | -118.70577 | 13713 ft | 369 kts | 333° |
| 2026-05-09 16:50 | 34.51201 | -118.73177 | 15160 ft | 371 kts | 335° |
| 2026-05-09 16:50 | 34.53503 | -118.74709 | 15560 ft | 381 kts | 327° |
| 2026-05-09 16:50 | 34.55693 | -118.76499 | 16435 ft | 377 kts | 325° |
| 2026-05-09 16:50 | 34.57881 | -118.78277 | 17136 ft | 382 kts | 327° |
| 2026-05-09 16:51 | 34.60199 | -118.79881 | 17834 ft | 386 kts | 331° |
| 2026-05-09 16:51 | 34.62575 | -118.81430 | 18531 ft | 389 kts | 330° |
| 2026-05-09 16:51 | 34.64919 | -118.83094 | 19217 ft | 392 kts | 328° |
| 2026-05-09 16:51 | 34.67256 | -118.84826 | 19888 ft | 395 kts | 328° |
| 2026-05-09 16:52 | 34.69635 | -118.86523 | 20573 ft | 398 kts | 330° |
| 2026-05-09 16:52 | 34.72054 | -118.88200 | 21252 ft | 402 kts | 330° |
| 2026-05-09 16:52 | 34.74489 | -118.89922 | 21917 ft | 406 kts | 329° |
| 2026-05-09 16:52 | 34.76931 | -118.91680 | 22613 ft | 410 kts | 329° |
| 2026-05-09 16:53 | 34.79405 | -118.93449 | 23240 ft | 415 kts | 329° |
| 2026-05-09 16:53 | 34.81911 | -118.95223 | 23882 ft | 419 kts | 329° |
| 2026-05-09 16:53 | 34.84432 | -118.97018 | 24475 ft | 421 kts | 329° |
| 2026-05-09 16:53 | 34.86971 | -118.98839 | 25038 ft | 425 kts | 329° |
| 2026-05-09 16:54 | 34.89531 | -119.00674 | 25594 ft | 429 kts | 329° |
| 2026-05-09 16:54 | 34.92123 | -119.02526 | 26152 ft | 433 kts | 329° |
| 2026-05-09 16:54 | 34.94730 | -119.04389 | 26689 ft | 437 kts | 329° |
| 2026-05-09 16:54 | 34.97362 | -119.06277 | 27221 ft | 440 kts | 329° |
| 2026-05-09 16:55 | 35.00013 | -119.08179 | 27773 ft | 444 kts | 329° |
| 2026-05-09 16:55 | 35.02687 | -119.10096 | 28320 ft | 448 kts | 329° |
| 2026-05-09 16:55 | 35.05381 | -119.12027 | 28878 ft | 451 kts | 329° |
| 2026-05-09 16:55 | 35.08096 | -119.13976 | 29445 ft | 454 kts | 329° |
| 2026-05-09 16:56 | 35.10827 | -119.15940 | 30007 ft | 458 kts | 329° |
| 2026-05-09 16:56 | 35.13583 | -119.17923 | 30511 ft | 461 kts | 329° |
| 2026-05-09 16:56 | 35.16351 | -119.19914 | 31020 ft | 463 kts | 329° |
| 2026-05-09 16:56 | 35.19121 | -119.21909 | 31761 ft | 460 kts | 329° |
| 2026-05-09 16:57 | 35.21865 | -119.23888 | 32530 ft | 456 kts | 329° |
| 2026-05-09 16:57 | 35.24592 | -119.25856 | 33272 ft | 454 kts | 329° |
| 2026-05-09 16:57 | 35.27301 | -119.27812 | 34003 ft | 451 kts | 329° |
| 2026-05-09 16:57 | 35.29999 | -119.29761 | 34630 ft | 449 kts | 329° |
| 2026-05-09 16:58 | 35.32677 | -119.31698 | 35315 ft | 445 kts | 329° |
| 2026-05-09 16:58 | 35.35330 | -119.33618 | 35964 ft | 442 kts | 329° |
| 2026-05-09 16:58 | 35.38007 | -119.35558 | 36031 ft | 452 kts | 329° |
| 2026-05-09 16:59 | 35.43470 | -119.39520 | 36026 ft | 453 kts | 329° |
| 2026-05-09 16:59 | 35.48791 | -119.43404 | 36022 ft | 443 kts | 328° |
| 2026-05-09 17:00 | 35.53350 | -119.48450 | 36021 ft | 438 kts | 310° |
| 2026-05-09 17:00 | 35.56346 | -119.54924 | 36023 ft | 450 kts | 293° |
| 2026-05-09 17:00 | 35.57221 | -119.58714 | 36026 ft | 463 kts | 284° |
| 2026-05-09 17:01 | 35.57796 | -119.62591 | 36053 ft | 472 kts | 283° |
| 2026-05-09 17:01 | 35.59001 | -119.70692 | 36052 ft | 490 kts | 283° |
| 2026-05-09 17:02 | 35.60236 | -119.79034 | 36043 ft | 502 kts | 283° |
| 2026-05-09 17:02 | 35.61487 | -119.87539 | 36046 ft | 509 kts | 283° |
| 2026-05-09 17:03 | 35.62747 | -119.96140 | 36042 ft | 513 kts | 283° |
| 2026-05-09 17:04 | 35.70882 | -120.24297 | 36099 ft | 492 kts | 305° |
| 2026-05-09 17:05 | 35.72633 | -120.27918 | 36127 ft | 494 kts | 301° |
| 2026-05-09 17:05 | 35.75596 | -120.35555 | 36194 ft | 494 kts | 298° |
| 2026-05-09 17:06 | 35.78803 | -120.43002 | 36234 ft | 491 kts | 302° |
| 2026-05-09 17:06 | 35.81908 | -120.50511 | 36292 ft | 492 kts | 299° |
| 2026-05-09 17:07 | 35.85020 | -120.57987 | 35926 ft | 486 kts | 301° |
| 2026-05-09 17:07 | 35.86055 | -120.60411 | 35494 ft | 479 kts | 300° |
| 2026-05-09 17:07 | 35.88056 | -120.65251 | 34655 ft | 466 kts | 299° |
| 2026-05-09 17:07 | 35.89491 | -120.68763 | 34059 ft | 451 kts | 300° |
| 2026-05-09 17:08 | 35.90901 | -120.72151 | 33450 ft | 440 kts | 300° |
| 2026-05-09 17:08 | 35.93669 | -120.78797 | 32305 ft | 432 kts | 299° |
| 2026-05-09 17:08 | 35.95022 | -120.82094 | 31739 ft | 430 kts | 299° |
| 2026-05-09 17:09 | 35.96382 | -120.85390 | 31171 ft | 437 kts | 299° |
| 2026-05-09 17:09 | 35.97808 | -120.88822 | 30583 ft | 456 kts | 299° |
| 2026-05-09 17:09 | 35.99227 | -120.92269 | 29963 ft | 444 kts | 298° |
| 2026-05-09 17:09 | 36.00766 | -120.95482 | 29311 ft | 428 kts | 309° |
| 2026-05-09 17:10 | 36.02816 | -120.98033 | 28792 ft | 413 kts | 321° |
| 2026-05-09 17:10 | 36.05074 | -121.00188 | 28285 ft | 409 kts | 323° |
| 2026-05-09 17:10 | 36.07342 | -121.02316 | 27744 ft | 409 kts | 323° |
| 2026-05-09 17:10 | 36.09591 | -121.04452 | 27209 ft | 406 kts | 322° |
| 2026-05-09 17:11 | 36.11819 | -121.06585 | 26670 ft | 404 kts | 322° |
| 2026-05-09 17:11 | 36.14032 | -121.08695 | 26147 ft | 401 kts | 322° |
| 2026-05-09 17:11 | 36.16238 | -121.10790 | 25614 ft | 398 kts | 322° |
| 2026-05-09 17:11 | 36.18428 | -121.12876 | 25093 ft | 396 kts | 322° |
| 2026-05-09 17:12 | 36.20603 | -121.14954 | 24571 ft | 394 kts | 322° |
| 2026-05-09 17:12 | 36.22771 | -121.17026 | 24053 ft | 392 kts | 322° |
| 2026-05-09 17:12 | 36.24929 | -121.19086 | 23515 ft | 391 kts | 322° |
| 2026-05-09 17:12 | 36.27073 | -121.21135 | 22977 ft | 388 kts | 322° |
| 2026-05-09 17:13 | 36.29197 | -121.23169 | 22474 ft | 383 kts | 322° |
| 2026-05-09 17:13 | 36.31296 | -121.25180 | 21966 ft | 380 kts | 322° |
| 2026-05-09 17:13 | 36.33378 | -121.27173 | 21465 ft | 376 kts | 322° |
| 2026-05-09 17:13 | 36.35440 | -121.29151 | 20976 ft | 373 kts | 322° |
| 2026-05-09 17:14 | 36.37486 | -121.31117 | 20486 ft | 371 kts | 322° |
| 2026-05-09 17:14 | 36.39519 | -121.33078 | 20002 ft | 369 kts | 322° |
| 2026-05-09 17:14 | 36.41541 | -121.35029 | 19518 ft | 368 kts | 321° |
| 2026-05-09 17:14 | 36.43558 | -121.36972 | 19048 ft | 366 kts | 321° |
| 2026-05-09 17:15 | 36.45565 | -121.38909 | 18552 ft | 365 kts | 321° |
| 2026-05-09 17:15 | 36.47564 | -121.40840 | 18045 ft | 363 kts | 321° |
| 2026-05-09 17:15 | 36.49575 | -121.42717 | 17546 ft | 359 kts | 325° |
| 2026-05-09 17:15 | 36.51861 | -121.43936 | 17074 ft | 356 kts | 340° |
| 2026-05-09 17:16 | 36.54200 | -121.44889 | 16637 ft | 353 kts | 340° |
| 2026-05-09 17:17 | 36.70273 | -121.51691 | 13297 ft | 346 kts | 340° |
| 2026-05-09 17:18 | 36.72532 | -121.52645 | 12841 ft | 340 kts | 340° |
| 2026-05-09 17:18 | 36.74752 | -121.53584 | 12392 ft | 335 kts | 340° |
| 2026-05-09 17:18 | 36.76946 | -121.54516 | 11954 ft | 331 kts | 340° |
| 2026-05-09 17:18 | 36.79118 | -121.55440 | 11522 ft | 328 kts | 340° |
| 2026-05-09 17:19 | 36.81273 | -121.56356 | 11098 ft | 327 kts | 340° |
| 2026-05-09 17:19 | 36.83422 | -121.57269 | 10661 ft | 327 kts | 340° |
| 2026-05-09 17:19 | 36.85572 | -121.58184 | 10231 ft | 326 kts | 340° |
| 2026-05-09 17:19 | 36.87709 | -121.59093 | 9782 ft | 319 kts | 340° |
| 2026-05-09 17:20 | 36.89760 | -121.59966 | 9355 ft | 304 kts | 340° |
| 2026-05-09 17:20 | 36.91718 | -121.60800 | 8956 ft | 291 kts | 340° |
| 2026-05-09 17:20 | 36.93605 | -121.61605 | 8582 ft | 285 kts | 340° |
| 2026-05-09 17:20 | 36.94847 | -121.62132 | 8335 ft | 284 kts | 340° |
| 2026-05-09 17:21 | 36.96712 | -121.62921 | 7959 ft | 282 kts | 340° |
| 2026-05-09 17:21 | 36.98566 | -121.63707 | 7589 ft | 281 kts | 340° |
| 2026-05-09 17:21 | 37.00408 | -121.64490 | 7221 ft | 279 kts | 340° |
| 2026-05-09 17:21 | 37.02242 | -121.65270 | 6856 ft | 278 kts | 340° |
| 2026-05-09 17:22 | 37.04070 | -121.66046 | 6485 ft | 277 kts | 340° |
| 2026-05-09 17:22 | 37.05881 | -121.66816 | 6106 ft | 271 kts | 341° |
| 2026-05-09 17:22 | 37.07650 | -121.67569 | 5748 ft | 267 kts | 341° |
| 2026-05-09 17:22 | 37.09403 | -121.68315 | 5392 ft | 264 kts | 341° |
| 2026-05-09 17:23 | 37.11111 | -121.69042 | 5039 ft | 255 kts | 341° |
| 2026-05-09 17:23 | 37.12764 | -121.69747 | 4702 ft | 247 kts | 341° |
| 2026-05-09 17:23 | 37.14371 | -121.70431 | 4376 ft | 241 kts | 341° |
| 2026-05-09 17:23 | 37.15925 | -121.71108 | 4061 ft | 233 kts | 339° |
| 2026-05-09 17:25 | 37.21186 | -121.76468 | 3745 ft | 157 kts | 319° |
| 2026-05-09 17:25 | 37.21983 | -121.77344 | 3540 ft | 148 kts | 319° |
| 2026-05-09 17:25 | 37.22735 | -121.78169 | 3363 ft | 140 kts | 320° |
| 2026-05-09 17:25 | 37.23460 | -121.78959 | 3187 ft | 136 kts | 320° |
| 2026-05-09 17:26 | 37.24165 | -121.79729 | 3011 ft | 134 kts | 319° |
| 2026-05-09 17:26 | 37.24853 | -121.80485 | 2845 ft | 130 kts | 319° |
| 2026-05-09 17:26 | 37.25533 | -121.81228 | 2679 ft | 131 kts | 320° |
| 2026-05-09 17:26 | 37.26226 | -121.81986 | 2508 ft | 134 kts | 319° |
| 2026-05-09 17:27 | 37.26924 | -121.82752 | 2339 ft | 133 kts | 319° |
| 2026-05-09 17:27 | 37.27622 | -121.83517 | 2145 ft | 133 kts | 319° |
| 2026-05-09 17:27 | 37.28320 | -121.84277 | 1975 ft | 133 kts | 319° |
| 2026-05-09 17:27 | 37.29017 | -121.85033 | 1792 ft | 133 kts | 319° |
| 2026-05-09 17:28 | 37.29717 | -121.85791 | 1629 ft | 133 kts | 319° |
| 2026-05-09 17:28 | 37.30419 | -121.86559 | 1436 ft | 133 kts | 319° |
| 2026-05-09 17:28 | 37.31111 | -121.87332 | 1265 ft | 133 kts | 319° |
| 2026-05-09 17:28 | 37.31801 | -121.88095 | 1087 ft | 132 kts | 319° |
| 2026-05-09 17:29 | 37.32495 | -121.88852 | 905 ft | 131 kts | 320° |
| 2026-05-09 17:29 | 37.33183 | -121.89596 | 722 ft | 130 kts | 319° |
| 2026-05-09 17:29 | 37.33864 | -121.90359 | 555 ft | 131 kts | 318° |
| 2026-05-09 17:29 | 37.34539 | -121.91117 | 375 ft | 129 kts | 319° |
| 2026-05-09 17:30 | 37.35225 | -121.91860 | 177 ft | 130 kts | 320° |
| 2026-05-09 17:30 | 37.35905 | -121.92593 | 59 ft | 123 kts | 319° |
| 2026-05-09 17:30 | 37.36348 | -121.93078 | 54 ft | 49 kts | 319° |
| 2026-05-09 17:30 | 37.36570 | -121.93318 | 49 ft | 41 kts | 319° |
| 2026-05-09 17:31 | 37.36686 | -121.93471 | 46 ft | 14 kts | 276° |
| 2026-05-09 17:31 | 37.36652 | -121.93557 | 45 ft | 8 kts | 226° |
| 2026-05-09 17:32 | 37.36529 | -121.93697 | 46 ft | 8 kts | 162° |
| 2026-05-09 17:32 | 37.36487 | -121.93658 | 47 ft | 6 kts | 149° |
| 2026-05-09 17:32 | 37.36444 | -121.93685 | 47 ft | 8 kts | 217° |
| 2026-05-09 17:33 | 37.36397 | -121.93670 | 46 ft | 7 kts | 140° |
| 2026-05-09 17:33 | 37.36356 | -121.93660 | 46 ft | 6 kts | 206° |
| 2026-05-09 17:33 | 37.36342 | -121.93681 | 47 ft | 0 kts | 237° |